AAY1243 KSGF-KSFB
Flight info
| Callsign | AAY1243 |
|---|---|
| Flight time | N/A |
| Altitude | 37000 |
| Route | ZAVEL J41 MEM MGM ACORI CABLO BULZI BITTE SHREK2 |
| Aircraft | A320/M-SDE3FGHIRWY/LB1 |
Departure
| Time | 2026-05-04 22:19 |
|---|---|
| Airport | Springfield Branson National Airport (KSGF) |
Arrival
| Time | N/A |
|---|---|
| Airport | Orlando Sanford International Airport (KSFB) |
| Time | Latitude | Longitude | Altitude | Speed | Heading |
|---|---|---|---|---|---|
| 2026-05-04 22:02 | 37.24059 | -93.39527 | 1269 ft | 0 kts | 272° |
| 2026-05-04 22:10 | 37.24058 | -93.39519 | 1268 ft | 3 kts | 272° |
| 2026-05-04 22:10 | 37.24058 | -93.39490 | 1268 ft | 3 kts | 272° |
| 2026-05-04 22:10 | 37.24057 | -93.39461 | 1268 ft | 3 kts | 272° |
| 2026-05-04 22:11 | 37.24057 | -93.39451 | 1268 ft | 0 kts | 272° |
| 2026-05-04 22:13 | 37.24065 | -93.39455 | 1273 ft | 2 kts | 4° |
| 2026-05-04 22:13 | 37.24105 | -93.39426 | 1269 ft | 11 kts | 31° |
| 2026-05-04 22:14 | 37.24178 | -93.39370 | 1276 ft | 11 kts | 45° |
| 2026-05-04 22:14 | 37.24178 | -93.39281 | 1271 ft | 13 kts | 111° |
| 2026-05-04 22:14 | 37.24135 | -93.39146 | 1274 ft | 19 kts | 112° |
| 2026-05-04 22:14 | 37.24088 | -93.38999 | 1278 ft | 18 kts | 112° |
| 2026-05-04 22:15 | 37.24072 | -93.38908 | 1281 ft | 14 kts | 72° |
| 2026-05-04 22:15 | 37.24166 | -93.38822 | 1282 ft | 14 kts | 31° |
| 2026-05-04 22:15 | 37.24279 | -93.38735 | 1281 ft | 22 kts | 31° |
| 2026-05-04 22:15 | 37.24370 | -93.38670 | 1279 ft | 23 kts | 24° |
| 2026-05-04 22:16 | 37.24556 | -93.38577 | 1277 ft | 21 kts | 21° |
| 2026-05-04 22:16 | 37.24646 | -93.38532 | 1274 ft | 20 kts | 21° |
| 2026-05-04 22:16 | 37.24769 | -93.38470 | 1275 ft | 18 kts | 21° |
| 2026-05-04 22:16 | 37.24886 | -93.38411 | 1274 ft | 21 kts | 22° |
| 2026-05-04 22:17 | 37.25042 | -93.38334 | 1274 ft | 25 kts | 22° |
| 2026-05-04 22:17 | 37.25196 | -93.38258 | 1273 ft | 23 kts | 21° |
| 2026-05-04 22:17 | 37.25334 | -93.38188 | 1272 ft | 17 kts | 22° |
| 2026-05-04 22:17 | 37.25352 | -93.38077 | 1275 ft | 15 kts | 129° |
| 2026-05-04 22:18 | 37.25255 | -93.38079 | 1272 ft | 17 kts | 202° |
| 2026-05-04 22:18 | 37.24967 | -93.38222 | 1278 ft | 79 kts | 201° |
| 2026-05-04 22:18 | 37.24258 | -93.38576 | 1284 ft | 137 kts | 202° |
| 2026-05-04 22:18 | 37.23353 | -93.39033 | 1850 ft | 138 kts | 202° |
| 2026-05-04 22:19 | 37.22475 | -93.39482 | 2569 ft | 135 kts | 205° |
| 2026-05-04 22:19 | 37.21541 | -93.39728 | 3110 ft | 151 kts | 177° |
| 2026-05-04 22:19 | 37.20481 | -93.39133 | 3340 ft | 183 kts | 154° |
| 2026-05-04 22:19 | 37.19447 | -93.38017 | 3559 ft | 213 kts | 133° |
| 2026-05-04 22:20 | 37.18574 | -93.36360 | 3823 ft | 241 kts | 128° |
| 2026-05-04 22:20 | 37.17604 | -93.34526 | 4216 ft | 264 kts | 129° |
| 2026-05-04 22:20 | 37.16540 | -93.32600 | 4904 ft | 272 kts | 130° |
| 2026-05-04 22:20 | 37.15437 | -93.30624 | 5646 ft | 280 kts | 130° |
| 2026-05-04 22:21 | 37.14306 | -93.28601 | 6403 ft | 286 kts | 130° |
| 2026-05-04 22:21 | 37.13153 | -93.26536 | 7149 ft | 292 kts | 129° |
| 2026-05-04 22:21 | 37.11988 | -93.24442 | 7950 ft | 295 kts | 129° |
| 2026-05-04 22:21 | 37.10807 | -93.22311 | 8727 ft | 300 kts | 128° |
| 2026-05-04 22:22 | 37.09611 | -93.20148 | 9501 ft | 304 kts | 128° |
| 2026-05-04 22:22 | 37.08397 | -93.17952 | 10195 ft | 309 kts | 127° |
| 2026-05-04 22:22 | 37.07126 | -93.15657 | 10433 ft | 332 kts | 128° |
| 2026-05-04 22:22 | 37.05760 | -93.13197 | 10621 ft | 356 kts | 127° |
| 2026-05-04 22:23 | 37.04316 | -93.10596 | 11018 ft | 369 kts | 127° |
| 2026-05-04 22:23 | 37.02837 | -93.07933 | 11644 ft | 375 kts | 127° |
| 2026-05-04 22:23 | 37.01339 | -93.05238 | 12314 ft | 379 kts | 127° |
| 2026-05-04 22:23 | 36.99825 | -93.02511 | 12987 ft | 384 kts | 127° |
| 2026-05-04 22:24 | 36.98296 | -92.99757 | 13642 ft | 388 kts | 126° |
| 2026-05-04 22:24 | 36.96746 | -92.96970 | 14192 ft | 393 kts | 127° |
| 2026-05-04 22:24 | 36.95175 | -92.94152 | 14747 ft | 397 kts | 127° |
| 2026-05-04 22:24 | 36.93583 | -92.91299 | 15302 ft | 402 kts | 127° |
| 2026-05-04 22:25 | 36.91972 | -92.88414 | 15834 ft | 407 kts | 126° |
| 2026-05-04 22:25 | 36.90340 | -92.85498 | 16384 ft | 412 kts | 127° |
| 2026-05-04 22:25 | 36.88687 | -92.82547 | 16924 ft | 417 kts | 126° |
| 2026-05-04 22:25 | 36.87019 | -92.79568 | 17466 ft | 421 kts | 126° |
| 2026-05-04 22:26 | 36.85329 | -92.76554 | 17995 ft | 426 kts | 126° |
| 2026-05-04 22:26 | 36.83620 | -92.73509 | 18475 ft | 430 kts | 126° |
| 2026-05-04 22:26 | 36.81892 | -92.70435 | 18976 ft | 434 kts | 126° |
| 2026-05-04 22:26 | 36.80152 | -92.67340 | 19460 ft | 437 kts | 126° |
| 2026-05-04 22:27 | 36.78397 | -92.64221 | 19975 ft | 440 kts | 126° |
| 2026-05-04 22:27 | 36.76653 | -92.61127 | 20456 ft | 444 kts | 126° |
| 2026-05-04 22:27 | 36.74871 | -92.57967 | 20961 ft | 447 kts | 126° |
| 2026-05-04 22:27 | 36.73079 | -92.54790 | 21444 ft | 450 kts | 126° |
| 2026-05-04 22:28 | 36.71249 | -92.51549 | 21920 ft | 453 kts | 126° |
| 2026-05-04 22:28 | 36.69455 | -92.48376 | 22387 ft | 456 kts | 126° |
| 2026-05-04 22:28 | 36.67623 | -92.45138 | 22835 ft | 458 kts | 126° |
| 2026-05-04 22:28 | 36.65756 | -92.41840 | 23281 ft | 461 kts | 126° |
| 2026-05-04 22:29 | 36.63901 | -92.38565 | 23639 ft | 464 kts | 126° |
| 2026-05-04 22:29 | 36.62033 | -92.35268 | 23980 ft | 467 kts | 126° |
| 2026-05-04 22:29 | 36.60155 | -92.31956 | 24315 ft | 470 kts | 126° |
| 2026-05-04 22:29 | 36.58264 | -92.28628 | 24655 ft | 473 kts | 126° |
| 2026-05-04 22:30 | 36.56356 | -92.25282 | 24984 ft | 475 kts | 126° |
| 2026-05-04 22:30 | 36.54436 | -92.21918 | 25299 ft | 478 kts | 126° |
| 2026-05-04 22:30 | 36.52506 | -92.18543 | 25618 ft | 481 kts | 126° |
| 2026-05-04 22:30 | 36.50564 | -92.15141 | 25930 ft | 483 kts | 126° |
| 2026-05-04 22:31 | 36.48614 | -92.11725 | 26236 ft | 486 kts | 126° |
| 2026-05-04 22:31 | 36.46655 | -92.08289 | 26554 ft | 488 kts | 126° |
| 2026-05-04 22:31 | 36.44686 | -92.04840 | 26837 ft | 491 kts | 126° |
| 2026-05-04 22:31 | 36.42702 | -92.01376 | 27130 ft | 493 kts | 126° |
| 2026-05-04 22:32 | 36.40704 | -91.97898 | 27417 ft | 496 kts | 126° |
| 2026-05-04 22:32 | 36.38696 | -91.94409 | 27689 ft | 498 kts | 126° |
| 2026-05-04 22:32 | 36.36675 | -91.90901 | 27969 ft | 501 kts | 126° |
| 2026-05-04 22:32 | 36.34648 | -91.87379 | 28229 ft | 503 kts | 126° |
| 2026-05-04 22:33 | 36.32613 | -91.83840 | 28482 ft | 505 kts | 126° |
| 2026-05-04 22:33 | 36.30568 | -91.80287 | 28731 ft | 507 kts | 126° |
| 2026-05-04 22:33 | 36.28512 | -91.76726 | 28968 ft | 509 kts | 126° |
| 2026-05-04 22:33 | 36.26444 | -91.73153 | 29201 ft | 511 kts | 127° |
| 2026-05-04 22:34 | 36.24195 | -91.69733 | 29401 ft | 513 kts | 132° |
| 2026-05-04 22:34 | 36.21852 | -91.66392 | 29673 ft | 514 kts | 132° |
| 2026-05-04 22:34 | 36.19511 | -91.63056 | 29993 ft | 513 kts | 132° |
| 2026-05-04 22:34 | 36.17169 | -91.59718 | 30257 ft | 513 kts | 132° |
| 2026-05-04 22:35 | 36.14829 | -91.56383 | 30503 ft | 514 kts | 132° |
| 2026-05-04 22:35 | 36.12489 | -91.53042 | 30746 ft | 514 kts | 132° |
| 2026-05-04 22:35 | 36.10147 | -91.49699 | 30984 ft | 515 kts | 132° |
| 2026-05-04 22:35 | 36.07802 | -91.46349 | 31227 ft | 515 kts | 132° |
| 2026-05-04 22:36 | 36.05451 | -91.42999 | 31471 ft | 516 kts | 132° |
| 2026-05-04 22:36 | 36.03097 | -91.39653 | 31712 ft | 516 kts | 132° |
| 2026-05-04 22:36 | 36.00736 | -91.36304 | 31956 ft | 517 kts | 132° |
| 2026-05-04 22:36 | 35.98372 | -91.32956 | 32195 ft | 518 kts | 132° |
| 2026-05-04 22:37 | 35.96001 | -91.29604 | 32439 ft | 518 kts | 132° |
| 2026-05-04 22:37 | 35.93630 | -91.26253 | 32679 ft | 519 kts | 132° |
| 2026-05-04 22:37 | 35.91258 | -91.22900 | 32919 ft | 519 kts | 132° |
| 2026-05-04 22:37 | 35.88884 | -91.19542 | 33166 ft | 520 kts | 132° |
| 2026-05-04 22:38 | 35.86506 | -91.16180 | 33423 ft | 520 kts | 132° |
| 2026-05-04 22:38 | 35.84131 | -91.12825 | 33667 ft | 520 kts | 132° |
| 2026-05-04 22:38 | 35.81751 | -91.09468 | 33914 ft | 520 kts | 132° |
| 2026-05-04 22:38 | 35.79366 | -91.06110 | 34128 ft | 521 kts | 132° |
| 2026-05-04 22:39 | 35.76980 | -91.02753 | 34352 ft | 520 kts | 132° |
| 2026-05-04 22:39 | 35.74599 | -90.99408 | 34575 ft | 520 kts | 132° |
| 2026-05-04 22:39 | 35.72212 | -90.96060 | 34789 ft | 520 kts | 132° |
| 2026-05-04 22:39 | 35.69826 | -90.92722 | 34992 ft | 520 kts | 133° |
| 2026-05-04 22:40 | 35.67436 | -90.89386 | 35204 ft | 519 kts | 133° |
| 2026-05-04 22:40 | 35.65050 | -90.86053 | 35406 ft | 519 kts | 133° |
| 2026-05-04 22:40 | 35.62664 | -90.82721 | 35598 ft | 519 kts | 133° |
| 2026-05-04 22:40 | 35.60282 | -90.79392 | 35782 ft | 519 kts | 133° |
| 2026-05-04 22:41 | 35.57901 | -90.76066 | 35978 ft | 518 kts | 133° |
| 2026-05-04 22:41 | 35.55522 | -90.72750 | 36162 ft | 518 kts | 133° |
| 2026-05-04 22:41 | 35.53142 | -90.69435 | 36347 ft | 517 kts | 133° |
| 2026-05-04 22:41 | 35.50763 | -90.66120 | 36520 ft | 517 kts | 133° |